createdAt,value
2018-05-13T00:02:09.067Z,98079.76
2018-05-13T00:04:36.559Z,98085.73
2018-05-13T00:07:04.018Z,98080.47
2018-05-13T00:09:31.502Z,98084.39
2018-05-13T00:11:58.967Z,98082.23
2018-05-13T00:14:26.514Z,98088.27
2018-05-13T00:16:53.974Z,98082.97
2018-05-13T00:19:21.526Z,98086.68
2018-05-13T00:21:48.990Z,98089.13
2018-05-13T00:24:16.530Z,98095.11
2018-05-13T00:26:43.986Z,98093.67
2018-05-13T00:29:11.479Z,98094.35
2018-05-13T00:31:38.948Z,98098.77
2018-05-13T00:34:06.431Z,98099.69
2018-05-13T00:36:33.927Z,98102.80
2018-05-13T00:39:01.509Z,98103.14
2018-05-13T00:41:29.157Z,98097.27
2018-05-13T00:43:56.712Z,98105.75
2018-05-13T00:46:24.197Z,98101.19
2018-05-13T00:48:52.235Z,98091.45
2018-05-13T00:51:20.036Z,98095.34
2018-05-13T00:53:47.519Z,98088.37
2018-05-13T00:56:14.999Z,98091.82
2018-05-13T00:58:42.480Z,98088.49
2018-05-13T01:01:10.010Z,98088.01
2018-05-13T01:03:37.539Z,98088.83
2018-05-13T01:06:05.064Z,98085.72
2018-05-13T01:08:32.559Z,98083.30
2018-05-13T01:11:00.079Z,98079.66
2018-05-13T01:13:27.556Z,98074.58
2018-05-13T01:15:55.063Z,98070.66
2018-05-13T01:18:22.530Z,98077.73
2018-05-13T01:20:50.027Z,98069.23
2018-05-13T01:23:17.565Z,98071.69
2018-05-13T01:25:45.135Z,98078.67
2018-05-13T01:28:12.627Z,98078.03
2018-05-13T01:30:40.106Z,98084.33
2018-05-13T01:33:07.598Z,98078.64
2018-05-13T01:35:35.091Z,98080.82
2018-05-13T01:38:02.550Z,98076.20
2018-05-13T01:40:30.031Z,98075.09
2018-05-13T01:42:57.548Z,98076.59
2018-05-13T01:45:25.026Z,98083.91
2018-05-13T01:47:52.550Z,98088.04
2018-05-13T01:50:20.111Z,98087.11
2018-05-13T01:52:47.587Z,98095.19
2018-05-13T01:55:15.134Z,98093.35
2018-05-13T01:57:42.686Z,98092.25
2018-05-13T02:00:10.167Z,98099.41
2018-05-13T02:02:38.598Z,98111.85
2018-05-13T02:05:06.186Z,98111.02
2018-05-13T02:07:33.659Z,98112.95
2018-05-13T02:10:01.210Z,98118.34
2018-05-13T02:12:28.766Z,98112.95
2018-05-13T02:14:56.323Z,98117.33
2018-05-13T02:17:23.794Z,98116.22
2018-05-13T02:19:51.342Z,98119.99
2018-05-13T02:22:18.826Z,98119.66
2018-05-13T02:24:46.362Z,98119.39
2018-05-13T02:27:13.847Z,98126.58
2018-05-13T02:29:41.323Z,98127.66
2018-05-13T02:32:08.839Z,98133.61
2018-05-13T02:34:36.300Z,98137.17
2018-05-13T02:37:03.850Z,98133.44
2018-05-13T02:39:31.310Z,98127.77
2018-05-13T02:41:58.870Z,98143.65
2018-05-13T02:44:26.456Z,98154.41
2018-05-13T02:46:53.986Z,98156.81
2018-05-13T02:49:21.507Z,98156.00
2018-05-13T02:51:48.999Z,98155.63
2018-05-13T02:54:16.458Z,98158.69
2018-05-13T02:56:43.994Z,98164.72
2018-05-13T02:59:11.493Z,98161.94
2018-05-13T03:01:39.008Z,98162.36
2018-05-13T03:04:06.607Z,98154.89
2018-05-13T03:06:34.110Z,98155.67
2018-05-13T03:09:01.592Z,98163.23
2018-05-13T03:11:29.131Z,98171.27
2018-05-13T03:13:56.598Z,98167.31
2018-05-13T03:16:25.122Z,98169.55
2018-05-13T03:18:52.675Z,98172.50
2018-05-13T03:21:20.142Z,98173.65
2018-05-13T03:23:47.673Z,98181.05
2018-05-13T03:26:15.131Z,98183.24
2018-05-13T03:28:42.619Z,98176.09
2018-05-13T03:31:10.131Z,98180.77
2018-05-13T03:33:37.635Z,98183.34
2018-05-13T03:36:05.106Z,98182.94
2018-05-13T03:38:32.631Z,98180.37
2018-05-13T03:41:00.090Z,98183.56
2018-05-13T03:43:27.669Z,98177.88
2018-05-13T03:45:55.230Z,98176.06
2018-05-13T03:48:22.792Z,98180.96
2018-05-13T03:50:51.238Z,98175.28
2018-05-13T03:53:18.735Z,98174.92
2018-05-13T03:55:46.291Z,98169.22
2018-05-13T03:58:13.814Z,98171.81
2018-05-13T04:00:41.270Z,98170.84
2018-05-13T04:03:08.766Z,98172.66
2018-05-13T04:05:36.302Z,98165.19
2018-05-13T04:11:30.524Z,98177.55
2018-05-13T04:14:09.938Z,98181.49
2018-05-13T04:16:37.438Z,98181.58
2018-05-13T04:19:05.892Z,98180.55
2018-05-13T04:21:33.418Z,98183.25
2018-05-13T04:24:00.918Z,98182.91
2018-05-13T04:26:28.482Z,98180.23
2018-05-13T04:28:56.014Z,98196.08
2018-05-13T04:31:24.503Z,98188.46
2018-05-13T04:33:51.982Z,98174.34
2018-05-13T04:36:19.540Z,98182.81
2018-05-13T04:38:47.097Z,98178.54
2018-05-13T04:41:14.562Z,98188.77
2018-05-13T04:43:42.051Z,98185.66
2018-05-13T04:46:09.582Z,98181.53
2018-05-13T04:48:37.126Z,98177.11
2018-05-13T04:51:04.695Z,98185.94
2018-05-13T04:53:32.250Z,98173.52
2018-05-13T04:55:59.810Z,98172.53
2018-05-13T04:58:27.390Z,98177.89
2018-05-13T05:00:54.934Z,98175.91
2018-05-13T05:03:22.399Z,98177.17
2018-05-13T05:05:49.882Z,98184.58
2018-05-13T05:08:17.344Z,98183.34
2018-05-13T05:10:44.827Z,98189.61
2018-05-13T05:13:12.347Z,98193.75
2018-05-13T05:15:39.799Z,98194.66
2018-05-13T05:18:07.323Z,98200.12
2018-05-13T05:20:34.810Z,98201.64
2018-05-13T05:23:02.420Z,98208.19
2018-05-13T05:25:29.858Z,98202.25
2018-05-13T05:27:57.452Z,98202.84
2018-05-13T05:30:24.901Z,98197.48
2018-05-13T05:32:52.375Z,98206.78
2018-05-13T05:35:19.872Z,98201.59
2018-05-13T05:37:47.413Z,98204.08
2018-05-13T05:40:14.977Z,98196.23
2018-05-13T05:42:42.443Z,98204.13
2018-05-13T05:45:09.928Z,98200.61
2018-05-13T05:47:37.451Z,98199.83
2018-05-13T05:50:05.003Z,98203.27
2018-05-13T05:52:32.560Z,98214.11
2018-05-13T05:55:01.195Z,98209.62
2018-05-13T05:57:28.658Z,98205.06
2018-05-13T05:59:56.244Z,98207.95
2018-05-13T06:02:23.735Z,98204.00
2018-05-13T06:04:51.198Z,98197.36
2018-05-13T06:07:20.487Z,98197.14
2018-05-13T06:09:48.039Z,98209.56
2018-05-13T06:12:15.588Z,98209.22
2018-05-13T06:14:43.055Z,98208.39
2018-05-13T06:17:10.536Z,98218.02
2018-05-13T06:19:38.093Z,98211.69
2018-05-13T06:22:05.515Z,98221.83
2018-05-13T06:24:32.995Z,98219.13
2018-05-13T06:27:00.555Z,98220.41
2018-05-13T06:29:28.071Z,98221.32
2018-05-13T06:31:55.634Z,98224.59
2018-05-13T06:34:23.134Z,98228.73
2018-05-13T06:36:50.615Z,98234.39
2018-05-13T06:39:18.078Z,98234.03
2018-05-13T06:41:45.565Z,98239.78
2018-05-13T06:44:13.082Z,98243.94
2018-05-13T06:46:40.585Z,98234.08
2018-05-13T06:49:08.047Z,98238.78
2018-05-13T06:51:35.543Z,98243.09
2018-05-13T06:54:03.047Z,98237.10
2018-05-13T06:56:30.571Z,98240.07
2018-05-13T06:58:58.035Z,98232.75
2018-05-13T07:01:25.519Z,98239.15
2018-05-13T07:03:53.051Z,98229.03
2018-05-13T07:06:20.534Z,98237.30
2018-05-13T07:08:47.994Z,98245.99
2018-05-13T07:11:15.470Z,98242.84
2018-05-13T07:13:43.078Z,98235.13
2018-05-13T07:16:10.555Z,98241.75
2018-05-13T07:18:38.039Z,98235.73
2018-05-13T07:21:05.543Z,98241.77
2018-05-13T07:23:33.069Z,98233.89
2018-05-13T07:26:00.545Z,98232.51
2018-05-13T07:28:28.060Z,98235.52
2018-05-13T07:30:55.570Z,98233.68
2018-05-13T07:33:23.049Z,98236.36
2018-05-13T07:35:50.531Z,98240.09
2018-05-13T07:38:18.046Z,98241.00
2018-05-13T07:40:45.510Z,98241.44
2018-05-13T07:43:13.080Z,98250.20
2018-05-13T07:45:40.551Z,98243.56
2018-05-13T07:48:08.050Z,98247.52
2018-05-13T07:50:35.542Z,98236.66
2018-05-13T07:53:03.102Z,98237.54
2018-05-13T07:55:30.671Z,98243.48
2018-05-13T07:57:58.227Z,98243.49
2018-05-13T08:00:25.664Z,98246.47
2018-05-13T08:02:53.147Z,98252.50
2018-05-13T08:05:20.642Z,98243.91
2018-05-13T08:07:48.151Z,98240.44
2018-05-13T08:10:15.611Z,98244.44
2018-05-13T08:12:43.195Z,98235.73
2018-05-13T08:15:10.750Z,98237.52
2018-05-13T08:17:38.243Z,98234.59
2018-05-13T08:20:05.735Z,98236.71
2018-05-13T08:22:33.238Z,98234.85
2018-05-13T08:25:00.804Z,98247.31
2018-05-13T08:27:28.322Z,98251.04
2018-05-13T08:29:55.815Z,98245.14
2018-05-13T08:32:23.283Z,98245.23
2018-05-13T08:34:50.899Z,98236.66
2018-05-13T08:37:18.385Z,98224.40
2018-05-13T08:39:46.030Z,98232.73
2018-05-13T08:42:13.560Z,98233.97
2018-05-13T08:44:41.138Z,98232.34
2018-05-13T08:47:10.449Z,98244.72
2018-05-13T08:49:37.940Z,98241.60
2018-05-13T08:52:05.414Z,98237.89
2018-05-13T08:54:33.061Z,98237.20
2018-05-13T08:57:00.591Z,98234.42
2018-05-13T08:59:28.089Z,98232.23
2018-05-13T09:01:55.560Z,98236.97
2018-05-13T09:04:23.067Z,98240.34
2018-05-13T09:06:50.598Z,98238.02
2018-05-13T09:09:18.093Z,98230.40
2018-05-13T09:11:45.559Z,98226.16
2018-05-13T09:14:13.110Z,98227.40
2018-05-13T09:16:40.606Z,98233.28
2018-05-13T09:19:08.210Z,98231.39
2018-05-13T09:21:35.666Z,98231.30
2018-05-13T09:24:03.150Z,98234.14
2018-05-13T09:26:30.718Z,98233.18
2018-05-13T09:29:01.468Z,98226.20
2018-05-13T09:31:29.098Z,98240.74
2018-05-13T09:33:56.718Z,98243.27
2018-05-13T09:36:24.205Z,98237.12
2018-05-13T09:38:51.730Z,98242.98
2018-05-13T09:41:19.218Z,98239.61
2018-05-13T09:43:46.706Z,98235.12
2018-05-13T09:46:15.111Z,98231.36
2018-05-13T09:48:42.591Z,98228.47
2018-05-13T09:51:10.202Z,98229.48
2018-05-13T09:53:37.784Z,98232.95
2018-05-13T09:56:05.300Z,98238.32
2018-05-13T09:58:32.765Z,98231.96
2018-05-13T10:01:00.282Z,98227.81
2018-05-13T10:03:27.788Z,98233.67
2018-05-13T10:05:55.387Z,98233.66
2018-05-13T10:08:22.894Z,98236.69
2018-05-13T10:10:50.460Z,98233.75
2018-05-13T10:13:19.014Z,98232.17
2018-05-13T10:15:46.503Z,98230.16
2018-05-13T10:18:13.983Z,98227.39
2018-05-13T10:20:41.477Z,98232.80
2018-05-13T10:23:08.952Z,98225.53
2018-05-13T10:25:36.551Z,98231.38
2018-05-13T10:28:04.075Z,98230.47
2018-05-13T10:30:31.646Z,98229.64
2018-05-13T10:32:59.111Z,98231.88
2018-05-13T10:35:26.859Z,98233.36
2018-05-13T10:37:54.476Z,98228.85
2018-05-13T10:40:21.955Z,98227.50
2018-05-13T10:42:49.520Z,98233.61
2018-05-13T10:45:16.974Z,98236.93
2018-05-13T10:47:44.454Z,98234.63
2018-05-13T10:50:11.923Z,98231.04
2018-05-13T10:52:39.427Z,98231.31
2018-05-13T10:55:06.920Z,98226.52
2018-05-13T10:57:34.458Z,98230.62
2018-05-13T11:00:01.947Z,98223.80
2018-05-13T11:02:29.451Z,98226.04
2018-05-13T11:04:56.966Z,98223.02
2018-05-13T11:07:24.498Z,98224.02
2018-05-13T11:09:51.987Z,98223.25
2018-05-13T11:12:19.519Z,98219.80
2018-05-13T11:14:46.993Z,98219.53
2018-05-13T11:17:14.489Z,98214.44
2018-05-13T11:19:41.966Z,98216.84
2018-05-13T11:22:09.459Z,98207.05
2018-05-13T11:24:36.932Z,98206.12
2018-05-13T11:27:04.503Z,98208.23
2018-05-13T11:29:31.963Z,98205.59
2018-05-13T11:31:59.450Z,98202.40
2018-05-13T11:34:26.943Z,98199.39
2018-05-13T11:36:54.471Z,98193.61
2018-05-13T11:39:21.949Z,98190.79
2018-05-13T11:41:49.422Z,98185.86
2018-05-13T11:44:16.926Z,98189.59
2018-05-13T11:46:44.450Z,98186.22
2018-05-13T11:49:11.954Z,98185.80
2018-05-13T11:51:39.443Z,98182.89
2018-05-13T11:54:06.966Z,98179.52
2018-05-13T11:56:34.521Z,98171.41
2018-05-13T11:59:01.968Z,98178.31
2018-05-13T12:01:29.457Z,98181.36
2018-05-13T12:03:56.957Z,98183.53
2018-05-13T12:06:24.450Z,98175.88
2018-05-13T12:08:51.938Z,98168.18
2018-05-13T12:11:19.438Z,98168.09
2018-05-13T12:13:47.066Z,98172.12
2018-05-13T12:16:14.594Z,98165.71
2018-05-13T12:18:42.081Z,98160.78
2018-05-13T12:21:09.612Z,98159.72
2018-05-13T12:23:37.139Z,98156.63
2018-05-13T12:26:04.609Z,98156.89
2018-05-13T12:28:32.275Z,98147.09
2018-05-13T12:30:59.738Z,98147.77
2018-05-13T12:33:27.233Z,98148.95
2018-05-13T12:35:54.695Z,98149.23
2018-05-13T12:38:22.196Z,98147.34
2018-05-13T12:40:49.665Z,98149.31
2018-05-13T12:43:17.219Z,98141.11
2018-05-13T12:45:44.778Z,98136.38
2018-05-13T12:48:12.334Z,98141.64
2018-05-13T12:50:39.799Z,98141.86
2018-05-13T12:53:07.270Z,98135.34
2018-05-13T12:55:34.816Z,98129.65
2018-05-13T12:58:02.278Z,98128.30
2018-05-13T13:00:29.830Z,98121.11
2018-05-13T13:02:57.290Z,98121.74
2018-05-13T13:05:24.778Z,98119.19
2018-05-13T13:07:52.242Z,98118.21
2018-05-13T13:10:19.755Z,98115.06
2018-05-13T13:12:47.230Z,98115.88
2018-05-13T13:15:14.779Z,98115.62
2018-05-13T13:17:42.246Z,98102.50
2018-05-13T13:20:09.815Z,98103.08
2018-05-13T13:22:37.285Z,98095.76
2018-05-13T13:25:04.798Z,98086.23
2018-05-13T13:27:32.263Z,98083.63
2018-05-13T13:29:59.752Z,98076.64
2018-05-13T13:32:27.244Z,98073.74
2018-05-13T13:34:54.861Z,98071.68
2018-05-13T13:37:22.352Z,98065.83
2018-05-13T13:39:49.838Z,98063.05
2018-05-13T13:42:17.339Z,98065.92
2018-05-13T13:44:44.839Z,98065.40
2018-05-13T13:47:12.361Z,98060.63
2018-05-13T13:49:39.921Z,98059.36
2018-05-13T13:52:07.378Z,98063.34
2018-05-13T13:54:36.979Z,98060.42
2018-05-13T13:57:04.530Z,98044.88
2018-05-13T13:59:32.037Z,98047.78
2018-05-13T14:01:59.522Z,98035.06
2018-05-13T14:04:27.038Z,98029.75
2018-05-13T14:06:54.526Z,98036.76
2018-05-13T14:09:22.006Z,98021.77
2018-05-13T14:11:49.499Z,98018.74
2018-05-13T14:14:17.022Z,98026.45
2018-05-13T14:16:44.527Z,98020.73
2018-05-13T14:19:11.994Z,98018.66
2018-05-13T14:21:39.559Z,98019.27
2018-05-13T14:24:07.920Z,98009.05
2018-05-13T14:26:35.405Z,98010.59
2018-05-13T14:29:02.926Z,98010.70
2018-05-13T14:31:30.415Z,98008.63
2018-05-13T14:33:57.880Z,97998.05
2018-05-13T14:36:25.378Z,98000.48
2018-05-13T14:38:52.835Z,98002.55
2018-05-13T14:41:20.340Z,98003.08
2018-05-13T14:43:47.806Z,97997.72
2018-05-13T14:46:16.242Z,97999.69
2018-05-13T14:48:43.703Z,97990.31
2018-05-13T14:51:11.228Z,97980.73
2018-05-13T14:53:38.715Z,97984.31
2018-05-13T14:56:06.192Z,97978.55
2018-05-13T14:58:33.718Z,97979.06
2018-05-13T15:01:01.300Z,97980.08
2018-05-13T15:03:28.775Z,97960.56
2018-05-13T15:05:56.275Z,97969.97
2018-05-13T15:08:23.780Z,97966.61
2018-05-13T15:10:51.282Z,97965.84
2018-05-13T15:13:19.164Z,97963.19
2018-05-13T15:15:46.658Z,97972.52
2018-05-13T15:18:14.142Z,97966.33
2018-05-13T15:20:41.691Z,97964.41
2018-05-13T15:23:09.212Z,97968.41
2018-05-13T15:25:36.786Z,97970.75
2018-05-13T15:28:04.279Z,97969.35
2018-05-13T15:30:31.811Z,97963.96
2018-05-13T15:32:59.402Z,97968.95
2018-05-13T15:35:26.964Z,97967.92
2018-05-13T15:37:54.500Z,97963.23
2018-05-13T15:40:21.988Z,97966.36
2018-05-13T15:42:49.756Z,97966.73
2018-05-13T15:45:17.295Z,97964.91
2018-05-13T15:47:44.801Z,97960.89
2018-05-13T15:50:12.271Z,97956.09
2018-05-13T15:52:39.786Z,97949.90
2018-05-13T15:55:07.364Z,97950.95
2018-05-13T15:57:34.813Z,97947.94
2018-05-13T16:00:02.290Z,97956.67
2018-05-13T16:02:29.829Z,97956.47
2018-05-13T16:04:57.322Z,97954.63
2018-05-13T16:07:24.815Z,97960.34
2018-05-13T16:09:52.301Z,97960.40
2018-05-13T16:12:19.876Z,97958.64
2018-05-13T16:14:47.307Z,97953.78
2018-05-13T16:17:14.834Z,97942.16
2018-05-13T16:19:42.303Z,97939.72
2018-05-13T16:22:09.813Z,97939.30
2018-05-13T16:24:37.383Z,97931.60
2018-05-13T16:27:04.857Z,97937.95
2018-05-13T16:29:32.343Z,97936.00
2018-05-13T16:31:59.809Z,97939.38
2018-05-13T16:34:27.320Z,97938.08
2018-05-13T16:36:54.823Z,97951.95
2018-05-13T16:39:23.327Z,97954.20
2018-05-13T16:41:50.800Z,97957.00
2018-05-13T16:44:18.295Z,97962.44
2018-05-13T16:46:45.758Z,97959.92
2018-05-13T16:49:13.360Z,97958.02
2018-05-13T16:51:40.838Z,97961.12
2018-05-13T16:54:08.327Z,97956.66
2018-05-13T16:56:36.799Z,97951.33
2018-05-13T16:59:04.447Z,97955.23
2018-05-13T17:01:31.943Z,97960.89
2018-05-13T17:03:59.439Z,97956.81
2018-05-13T17:06:26.972Z,97950.78
2018-05-13T17:08:54.466Z,97952.04
2018-05-13T17:11:21.988Z,97951.41
2018-05-13T17:13:49.475Z,97952.66
2018-05-13T17:16:16.958Z,97953.88
2018-05-13T17:18:44.464Z,97960.27
2018-05-13T17:21:11.946Z,97971.33
2018-05-13T17:23:39.523Z,97973.84
2018-05-13T17:26:06.958Z,97968.28
2018-05-13T17:28:34.459Z,97974.05
2018-05-13T17:31:01.955Z,97966.03
2018-05-13T17:33:29.448Z,97968.95
2018-05-13T17:35:56.963Z,97960.38
2018-05-13T17:38:24.506Z,97966.70
2018-05-13T17:40:52.038Z,97956.41
2018-05-13T17:43:19.510Z,97958.41
2018-05-13T17:45:46.994Z,97951.44
2018-05-13T17:48:14.486Z,97956.50
2018-05-13T17:50:41.982Z,97953.88
2018-05-13T17:53:09.463Z,97955.26
2018-05-13T17:55:37.021Z,97946.19
2018-05-13T17:58:04.495Z,97942.47
2018-05-13T18:00:32.065Z,97940.42
2018-05-13T18:02:59.579Z,97932.31
2018-05-13T18:05:27.086Z,97923.46
2018-05-13T18:07:54.577Z,97917.78
2018-05-13T18:10:22.111Z,97918.11
2018-05-13T18:12:49.568Z,97916.94
2018-05-13T18:15:17.050Z,97916.11
2018-05-13T18:17:44.562Z,97910.89
2018-05-13T18:20:12.110Z,97908.72
2018-05-13T18:22:41.645Z,97906.13
2018-05-13T18:25:09.142Z,97903.29
2018-05-13T18:27:36.622Z,97904.50
2018-05-13T18:30:04.114Z,97904.70
2018-05-13T18:32:31.581Z,97908.17
2018-05-13T18:34:59.131Z,97899.65
2018-05-13T18:37:26.678Z,97909.27
2018-05-13T18:39:54.172Z,97912.14
2018-05-13T18:42:21.766Z,97910.05
2018-05-13T18:44:49.359Z,97911.52
2018-05-13T18:47:16.928Z,97918.41
2018-05-13T18:49:44.405Z,97927.22
2018-05-13T18:52:11.895Z,97942.64
2018-05-13T18:54:39.460Z,97960.78
2018-05-13T18:57:06.975Z,97974.56
2018-05-13T18:59:34.470Z,97978.03
2018-05-13T19:02:01.975Z,97974.06
2018-05-13T19:04:29.450Z,97979.28
2018-05-13T19:06:56.939Z,97965.78
2018-05-13T19:09:24.411Z,97962.73
2018-05-13T19:11:51.924Z,97958.89
2018-05-13T19:14:19.459Z,97965.20
2018-05-13T19:16:46.971Z,97967.20
2018-05-13T19:19:14.447Z,97969.72
2018-05-13T19:21:41.971Z,97983.38
2018-05-13T19:24:09.592Z,97977.11
2018-05-13T19:26:37.058Z,97974.34
2018-05-13T19:29:04.523Z,97980.36
2018-05-13T19:31:32.048Z,97982.16
2018-05-13T19:33:59.541Z,97972.87
2018-05-13T19:36:27.035Z,97984.78
2018-05-13T19:38:54.574Z,97980.27
2018-05-13T19:41:22.060Z,97980.48
2018-05-13T19:43:49.592Z,97979.56
2018-05-13T19:46:17.054Z,97978.64
2018-05-13T19:48:44.654Z,97987.45
2018-05-13T19:51:12.094Z,97983.30
2018-05-13T19:53:39.589Z,97983.09
2018-05-13T19:56:07.084Z,97987.80
2018-05-13T19:58:34.577Z,97993.19
2018-05-13T20:01:02.153Z,98003.88
2018-05-13T20:03:29.947Z,98004.86
2018-05-13T20:05:57.130Z,97997.48
2018-05-13T20:08:24.700Z,97993.47
2018-05-13T20:10:52.210Z,97986.88
2018-05-13T20:13:19.698Z,97994.18
2018-05-13T20:15:47.222Z,97998.31
2018-05-13T20:18:14.703Z,97994.30
2018-05-13T20:20:42.164Z,97988.62
2018-05-13T20:23:21.985Z,97993.63
2018-05-13T20:25:49.455Z,98002.13
2018-05-13T20:28:16.934Z,98014.44
2018-05-13T20:30:44.429Z,98021.55
2018-05-13T20:33:11.930Z,98024.23
2018-05-13T20:35:39.507Z,97998.91
2018-05-13T20:38:06.994Z,97980.33
2018-05-13T20:40:34.486Z,97977.15
2018-05-13T20:43:01.975Z,97989.17
2018-05-13T20:45:29.466Z,98008.80
2018-05-13T20:47:56.965Z,98011.46
2018-05-13T20:50:24.431Z,98008.45
2018-05-13T20:52:51.894Z,98007.84
2018-05-13T20:55:19.381Z,98005.08
2018-05-13T20:57:46.905Z,98011.63
2018-05-13T21:00:14.470Z,98010.34
2018-05-13T21:02:42.028Z,98005.45
2018-05-13T21:05:09.563Z,98000.98
2018-05-13T21:07:37.018Z,98004.36
2018-05-13T21:10:04.522Z,98003.44
2018-05-13T21:12:31.990Z,97998.55
2018-05-13T21:14:59.502Z,97995.22
2018-05-13T21:17:27.079Z,97993.84
2018-05-13T21:19:54.647Z,97994.54
2018-05-13T21:22:22.204Z,98002.19
2018-05-13T21:24:49.754Z,98002.55
2018-05-13T21:27:17.314Z,98009.00
2018-05-13T21:29:44.879Z,98010.36
2018-05-13T21:32:12.438Z,98005.02
2018-05-13T21:34:39.937Z,98001.98
2018-05-13T21:37:07.437Z,98000.78
2018-05-13T21:39:34.929Z,98008.32
2018-05-13T21:42:02.405Z,98006.77
2018-05-13T21:44:29.951Z,98010.48
2018-05-13T21:46:57.416Z,98002.81
2018-05-13T21:49:24.899Z,98007.02
2018-05-13T21:51:52.374Z,98003.23
2018-05-13T21:54:19.865Z,98004.72
2018-05-13T21:56:47.346Z,98000.52
2018-05-13T21:59:14.875Z,97992.55
2018-05-13T22:01:42.371Z,98010.22
2018-05-13T22:04:09.859Z,98014.14
2018-05-13T22:06:37.342Z,98019.27
2018-05-13T22:09:05.718Z,98015.56
2018-05-13T22:11:33.199Z,98007.00
2018-05-13T22:14:00.658Z,98012.55
2018-05-13T22:16:28.255Z,98011.41
2018-05-13T22:18:55.715Z,98009.23
2018-05-13T22:21:25.366Z,98013.51
2018-05-13T22:23:52.877Z,98008.37
2018-05-13T22:26:20.434Z,98009.91
2018-05-13T22:28:48.052Z,98013.45
2018-05-13T22:31:15.611Z,98007.47
2018-05-13T22:33:43.179Z,98008.44
2018-05-13T22:36:10.750Z,98006.92
2018-05-13T22:38:38.295Z,98006.09
2018-05-13T22:41:05.854Z,97994.80
2018-05-13T22:43:33.412Z,98007.03
2018-05-13T22:46:00.902Z,98009.92
2018-05-13T22:48:28.382Z,98004.30
2018-05-13T22:50:55.878Z,97996.49
2018-05-13T22:53:23.336Z,97987.05
2018-05-13T22:55:50.910Z,97994.22
2018-05-13T22:58:18.812Z,97999.98
2018-05-13T23:00:46.278Z,97991.27
2018-05-13T23:03:13.754Z,97994.02
2018-05-13T23:05:41.448Z,97993.45
2018-05-13T23:08:08.938Z,97995.16
2018-05-13T23:10:36.419Z,97987.34
2018-05-13T23:13:04.069Z,97977.22
2018-05-13T23:15:31.550Z,97981.10
2018-05-13T23:17:59.036Z,97970.70
2018-05-13T23:20:26.523Z,97969.84
2018-05-13T23:22:54.090Z,97966.41
2018-05-13T23:25:21.546Z,97964.73
2018-05-13T23:27:49.031Z,97967.66
2018-05-13T23:30:16.550Z,97971.67
2018-05-13T23:32:44.113Z,97966.69
2018-05-13T23:35:11.597Z,97950.98
2018-05-13T23:37:39.127Z,97942.42
2018-05-13T23:40:06.674Z,97944.45
2018-05-13T23:42:34.159Z,97946.84
2018-05-13T23:45:01.619Z,97949.44
2018-05-13T23:47:29.102Z,97946.33
2018-05-13T23:49:56.590Z,97952.19
2018-05-13T23:52:24.078Z,97956.48
2018-05-13T23:54:51.582Z,97955.77
2018-05-13T23:57:19.082Z,97958.16
2018-05-13T23:59:46.553Z,97948.61
